createdAt,value
2022-10-31T00:00:46.692Z,36.40
2022-10-31T00:03:13.501Z,29.40
2022-10-31T00:05:50.391Z,27.98
2022-10-31T00:08:18.424Z,28.30
2022-10-31T00:10:46.226Z,27.42
2022-10-31T00:13:14.039Z,25.58
2022-10-31T00:15:41.649Z,29.85
2022-10-31T00:18:09.955Z,26.98
2022-10-31T00:20:37.377Z,28.38
2022-10-31T00:23:05.187Z,25.67
2022-10-31T00:25:35.331Z,31.85
2022-10-31T00:28:02.258Z,29.65
2022-10-31T00:30:29.251Z,26.52
2022-10-31T00:32:56.133Z,26.20
2022-10-31T00:35:22.913Z,27.08
2022-10-31T00:37:49.583Z,27.23
2022-10-31T00:40:16.227Z,27.40
2022-10-31T00:42:42.862Z,26.23
2022-10-31T00:45:12.633Z,31.60
2022-10-31T00:47:39.331Z,28.02
2022-10-31T00:50:06.902Z,31.30
2022-10-31T00:52:33.586Z,26.48
2022-10-31T00:55:00.317Z,31.92
2022-10-31T00:57:27.122Z,28.05
2022-10-31T00:59:53.807Z,31.80
2022-10-31T01:02:20.644Z,34.67
2022-10-31T01:04:47.386Z,28.35
2022-10-31T01:07:15.087Z,30.52
2022-10-31T01:09:41.915Z,26.45
2022-10-31T01:12:10.011Z,33.03
2022-10-31T01:14:36.632Z,35.10
2022-10-31T01:17:03.268Z,29.75
2022-10-31T01:19:29.908Z,38.60
2022-10-31T01:21:56.672Z,29.83
2022-10-31T01:24:23.392Z,28.65
2022-10-31T01:26:50.052Z,30.50
2022-10-31T01:29:16.694Z,24.85
2022-10-31T01:31:43.333Z,37.83
2022-10-31T01:34:14.479Z,29.13
2022-10-31T01:36:43.080Z,32.33
2022-10-31T01:39:12.638Z,28.33
2022-10-31T01:41:42.656Z,32.55
2022-10-31T01:44:15.335Z,37.65
2022-10-31T01:47:08.375Z,24.60
2022-10-31T01:49:43.166Z,26.88
2022-10-31T01:52:25.819Z,27.65
2022-10-31T01:55:11.055Z,33.60
2022-10-31T01:57:39.376Z,29.92
2022-10-31T02:00:09.455Z,30.85
2022-10-31T02:02:36.825Z,25.10
2022-10-31T02:05:06.708Z,33.67
2022-10-31T02:07:43.313Z,27.25
2022-10-31T02:10:09.996Z,31.38
2022-10-31T02:12:39.670Z,34.90
2022-10-31T02:15:06.985Z,33.25
2022-10-31T02:17:34.443Z,37.65
2022-10-31T02:20:00.999Z,35.53
2022-10-31T02:22:31.382Z,36.22
2022-10-31T02:25:35.136Z,35.65
2022-10-31T02:28:40.773Z,32.83
2022-10-31T02:31:22.726Z,32.30
2022-10-31T02:33:54.829Z,35.08
2022-10-31T02:36:48.232Z,36.85
2022-10-31T02:39:24.948Z,30.80
2022-10-31T02:42:09.738Z,39.45
2022-10-31T02:45:01.151Z,32.20
2022-10-31T02:47:30.396Z,34.67
2022-10-31T02:50:04.267Z,35.45
2022-10-31T02:52:33.031Z,31.27
2022-10-31T02:54:59.887Z,28.58
2022-10-31T02:57:30.350Z,42.67
2022-10-31T03:00:02.109Z,27.88
2022-10-31T03:02:56.896Z,33.03
2022-10-31T03:05:32.593Z,30.67
2022-10-31T03:08:11.224Z,32.25
2022-10-31T03:10:56.931Z,33.38
2022-10-31T03:16:08.676Z,34.08
2022-10-31T03:18:41.540Z,31.63
2022-10-31T03:21:17.889Z,30.67
2022-10-31T03:23:46.941Z,29.85
2022-10-31T03:26:14.879Z,32.95
2022-10-31T03:29:00.751Z,34.15
2022-10-31T03:31:34.560Z,29.23
2022-10-31T03:34:02.001Z,30.17
2022-10-31T03:36:31.353Z,33.20
2022-10-31T03:38:58.230Z,32.50
2022-10-31T03:41:27.159Z,35.35
2022-10-31T03:43:57.952Z,43.10
2022-10-31T03:46:25.166Z,35.78
2022-10-31T03:48:57.246Z,40.38
2022-10-31T03:51:24.368Z,39.88
2022-10-31T03:54:24.649Z,39.40
2022-10-31T03:56:54.752Z,34.50
2022-10-31T03:59:35.634Z,41.83
2022-10-31T04:02:08.418Z,35.40
2022-10-31T04:04:35.995Z,39.58
2022-10-31T04:07:04.060Z,40.35
2022-10-31T04:09:32.946Z,36.35
2022-10-31T04:12:01.451Z,40.80
2022-10-31T04:14:30.963Z,36.92
2022-10-31T04:16:57.701Z,40.17
2022-10-31T04:19:24.335Z,35.72
2022-10-31T04:21:51.031Z,36.40
2022-10-31T04:24:17.652Z,36.88
2022-10-31T04:26:44.282Z,42.75
2022-10-31T04:29:11.008Z,39.03
2022-10-31T04:31:37.661Z,38.58
2022-10-31T04:34:04.332Z,36.15
2022-10-31T04:36:31.082Z,38.08
2022-10-31T04:38:57.806Z,88.68
2022-10-31T04:41:24.435Z,51.25
2022-10-31T04:43:51.212Z,68.47
2022-10-31T04:46:17.837Z,47.42
2022-10-31T04:48:44.467Z,44.35
2022-10-31T04:51:11.095Z,38.05
2022-10-31T04:53:37.730Z,52.40
2022-10-31T04:56:04.578Z,47.88
2022-10-31T04:58:31.271Z,49.78
2022-10-31T05:00:57.981Z,42.85
2022-10-31T05:03:24.641Z,49.25
2022-10-31T05:05:51.457Z,68.10
2022-10-31T05:08:18.203Z,49.92
2022-10-31T05:10:44.907Z,64.10
2022-10-31T05:13:11.616Z,61.30
2022-10-31T05:15:38.398Z,70.07
2022-10-31T05:18:05.127Z,64.22
2022-10-31T05:20:32.472Z,57.03
2022-10-31T05:22:59.612Z,60.38
2022-10-31T05:25:27.752Z,54.97
2022-10-31T05:27:55.466Z,52.03
2022-10-31T05:30:27.428Z,53.50
2022-10-31T05:32:54.129Z,61.92
2022-10-31T05:35:23.451Z,60.30
2022-10-31T05:37:50.319Z,51.60
2022-10-31T05:40:18.444Z,55.10
2022-10-31T05:42:45.106Z,51.33
2022-10-31T05:45:14.781Z,69.28
2022-10-31T05:47:41.398Z,57.92
2022-10-31T05:50:09.055Z,50.22
2022-10-31T05:52:35.924Z,60.28
2022-10-31T05:55:02.586Z,60.08
2022-10-31T05:57:30.276Z,52.78
2022-10-31T05:59:56.971Z,43.53
2022-10-31T06:02:23.640Z,46.22
2022-10-31T06:04:50.313Z,47.67
2022-10-31T06:07:17.029Z,45.90
2022-10-31T06:09:43.864Z,55.50
2022-10-31T06:12:10.592Z,44.63
2022-10-31T06:14:37.215Z,56.58
2022-10-31T06:17:03.865Z,57.83
2022-10-31T06:19:30.487Z,38.33
2022-10-31T06:21:57.149Z,43.75
2022-10-31T06:24:23.782Z,49.45
2022-10-31T06:26:50.436Z,37.70
2022-10-31T06:29:17.043Z,39.33
2022-10-31T06:31:43.720Z,42.53
2022-10-31T06:34:10.366Z,41.53
2022-10-31T06:36:37.039Z,38.45
2022-10-31T06:39:03.704Z,36.05
2022-10-31T06:41:30.320Z,53.70
2022-10-31T06:43:56.961Z,51.03
2022-10-31T06:46:23.626Z,46.35
2022-10-31T06:48:50.323Z,49.38
2022-10-31T06:51:17.029Z,49.95
2022-10-31T06:53:43.726Z,40.53
2022-10-31T06:56:10.330Z,50.10
2022-10-31T06:58:36.979Z,56.85
2022-10-31T07:01:04.120Z,50.50
2022-10-31T07:03:31.058Z,50.78
2022-10-31T07:05:58.247Z,60.22
2022-10-31T07:08:24.942Z,53.10
2022-10-31T07:10:56.861Z,35.42
2022-10-31T07:13:26.626Z,39.15
2022-10-31T07:16:00.358Z,40.00
2022-10-31T07:18:27.033Z,37.30
2022-10-31T07:20:54.064Z,37.03
2022-10-31T07:23:20.789Z,37.40
2022-10-31T07:25:47.432Z,43.75
2022-10-31T07:28:14.139Z,37.67
2022-10-31T07:30:41.148Z,46.05
2022-10-31T07:33:07.824Z,53.20
2022-10-31T07:35:35.955Z,52.00
2022-10-31T07:38:13.305Z,47.22
2022-10-31T07:40:40.720Z,45.05
2022-10-31T07:43:13.051Z,39.08
2022-10-31T07:45:40.916Z,48.60
2022-10-31T07:48:07.663Z,37.30
2022-10-31T07:50:37.515Z,32.92
2022-10-31T07:53:09.177Z,41.47
2022-10-31T07:55:36.686Z,48.03
2022-10-31T07:58:08.904Z,34.90
2022-10-31T08:00:36.825Z,38.97
2022-10-31T08:03:08.836Z,33.80
2022-10-31T08:05:36.093Z,36.25
2022-10-31T08:08:04.018Z,32.50
2022-10-31T08:10:31.015Z,30.33
2022-10-31T08:13:05.659Z,35.63
2022-10-31T08:15:32.596Z,31.38
2022-10-31T08:17:59.446Z,30.95
2022-10-31T08:20:26.371Z,27.60
2022-10-31T08:23:03.966Z,32.50
2022-10-31T08:25:35.438Z,27.98
2022-10-31T08:28:06.011Z,28.58
2022-10-31T08:30:35.037Z,29.70
2022-10-31T08:33:01.652Z,33.80
2022-10-31T08:35:28.658Z,30.50
2022-10-31T08:37:56.377Z,33.20
2022-10-31T08:40:24.084Z,30.20
2022-10-31T08:43:17.444Z,36.60
2022-10-31T08:45:45.130Z,35.80
2022-10-31T08:48:13.963Z,32.50
2022-10-31T08:53:13.451Z,28.73
2022-10-31T08:55:42.353Z,29.40
2022-10-31T08:58:13.159Z,33.78
2022-10-31T09:00:40.049Z,35.33
2022-10-31T09:03:13.387Z,32.25
2022-10-31T09:05:40.588Z,33.05
2022-10-31T09:08:13.175Z,33.10
2022-10-31T09:10:42.946Z,40.90
2022-10-31T09:13:24.159Z,34.55
2022-10-31T09:15:53.000Z,34.95
2022-10-31T09:18:21.807Z,37.05
2022-10-31T09:23:20.361Z,31.73
2022-10-31T09:25:50.744Z,29.00
2022-10-31T09:28:22.582Z,23.65
2022-10-31T09:30:53.934Z,27.27
2022-10-31T09:33:20.765Z,31.27
2022-10-31T09:35:47.806Z,26.70
2022-10-31T09:38:16.896Z,18.55
2022-10-31T09:40:48.499Z,26.88
2022-10-31T09:43:17.847Z,21.95
2022-10-31T09:46:05.682Z,20.75
2022-10-31T09:48:42.358Z,22.52
2022-10-31T09:51:12.498Z,21.20
2022-10-31T09:53:47.133Z,21.23
2022-10-31T09:56:20.200Z,21.35
2022-10-31T09:58:49.490Z,21.80
2022-10-31T10:01:43.411Z,16.40
2022-10-31T10:04:30.307Z,20.90
2022-10-31T10:06:57.415Z,19.00
2022-10-31T10:09:26.727Z,18.42
2022-10-31T10:12:34.845Z,20.63
2022-10-31T10:15:24.807Z,20.15
2022-10-31T10:18:01.821Z,16.67
2022-10-31T10:20:58.250Z,23.63
2022-10-31T10:23:34.313Z,21.13
2022-10-31T10:26:21.657Z,21.92
2022-10-31T10:29:28.516Z,19.05
2022-10-31T10:31:56.363Z,19.85
2022-10-31T10:34:31.151Z,20.33
2022-10-31T10:37:06.460Z,18.33
2022-10-31T10:39:33.040Z,18.58
2022-10-31T10:42:19.146Z,16.50
2022-10-31T10:45:07.455Z,16.02
2022-10-31T10:47:45.455Z,16.90
2022-10-31T10:50:19.994Z,17.10
2022-10-31T10:53:22.595Z,15.55
2022-10-31T10:55:57.436Z,15.07
2022-10-31T10:58:24.154Z,13.52
2022-10-31T11:00:51.609Z,16.10
2022-10-31T11:03:19.441Z,22.13
2022-10-31T11:06:02.865Z,17.02
2022-10-31T11:08:32.206Z,16.73
2022-10-31T11:11:05.109Z,24.95
2022-10-31T11:13:32.982Z,18.60
2022-10-31T11:16:09.905Z,14.25
2022-10-31T11:18:43.120Z,17.48
2022-10-31T11:21:28.292Z,20.55
2022-10-31T11:24:10.424Z,23.58
2022-10-31T11:26:39.100Z,14.93
2022-10-31T11:29:06.664Z,15.10
2022-10-31T11:31:34.150Z,14.25
2022-10-31T11:34:02.653Z,14.45
2022-10-31T11:36:32.110Z,14.85
2022-10-31T11:39:01.239Z,19.20
2022-10-31T11:41:36.033Z,18.60
2022-10-31T11:44:33.626Z,16.42
2022-10-31T11:47:02.649Z,18.55
2022-10-31T11:49:36.277Z,19.45
2022-10-31T11:52:14.810Z,14.75
2022-10-31T11:55:00.661Z,16.10
2022-10-31T11:57:44.488Z,22.20
2022-10-31T12:03:24.664Z,14.98
2022-10-31T12:06:02.253Z,19.35
2022-10-31T12:08:36.955Z,17.77
2022-10-31T12:11:16.987Z,15.93
2022-10-31T12:13:52.659Z,16.90
2022-10-31T12:16:34.244Z,14.50
2022-10-31T12:19:06.819Z,15.90
2022-10-31T12:21:39.092Z,15.30
2022-10-31T12:24:18.304Z,18.00
2022-10-31T12:26:55.769Z,17.10
2022-10-31T12:29:29.254Z,20.25
2022-10-31T12:32:30.360Z,20.75
2022-10-31T12:35:16.337Z,14.98
2022-10-31T12:37:52.432Z,16.67
2022-10-31T12:40:47.876Z,16.73
2022-10-31T12:43:43.314Z,21.40
2022-10-31T12:46:23.580Z,17.48
2022-10-31T12:49:11.862Z,17.50
2022-10-31T12:52:01.707Z,17.77
2022-10-31T12:54:34.361Z,14.30
2022-10-31T12:57:12.943Z,18.90
2022-10-31T12:59:44.863Z,17.60
2022-10-31T13:02:38.616Z,15.75
2022-10-31T13:05:27.229Z,13.02
2022-10-31T13:07:59.074Z,17.10
2022-10-31T13:10:33.005Z,20.25
2022-10-31T13:13:06.363Z,14.35
2022-10-31T13:16:07.098Z,16.50
2022-10-31T13:18:56.235Z,15.48
2022-10-31T13:21:26.395Z,17.65
2022-10-31T13:23:53.406Z,15.48
2022-10-31T13:27:07.171Z,16.70
2022-10-31T13:29:39.584Z,14.52
2022-10-31T13:32:07.297Z,13.77
2022-10-31T13:34:47.333Z,16.20
2022-10-31T13:37:36.827Z,14.38
2022-10-31T13:40:35.373Z,14.52
2022-10-31T13:43:16.896Z,17.17
2022-10-31T13:45:51.788Z,20.40
2022-10-31T13:48:34.183Z,17.55
2022-10-31T13:51:07.271Z,18.40
2022-10-31T13:53:43.158Z,16.40
2022-10-31T13:56:09.737Z,14.98
2022-10-31T13:58:37.199Z,20.17
2022-10-31T14:01:14.747Z,17.65
2022-10-31T14:04:06.225Z,22.40
2022-10-31T14:06:38.016Z,16.40
2022-10-31T14:09:04.959Z,19.75
2022-10-31T14:11:36.131Z,17.35
2022-10-31T14:14:04.188Z,15.45
2022-10-31T14:16:32.921Z,21.23
2022-10-31T14:19:08.758Z,17.65
2022-10-31T14:21:43.647Z,15.65
2022-10-31T14:24:25.670Z,22.10
2022-10-31T14:26:54.768Z,16.33
2022-10-31T14:29:34.382Z,17.45
2022-10-31T14:32:15.612Z,24.67
2022-10-31T14:34:56.948Z,23.92
2022-10-31T14:38:01.447Z,17.75
2022-10-31T14:41:00.228Z,22.10
2022-10-31T14:43:32.882Z,26.45
2022-10-31T14:46:16.315Z,21.88
2022-10-31T14:49:04.980Z,22.67
2022-10-31T14:51:39.901Z,23.98
2022-10-31T14:54:07.690Z,21.13
2022-10-31T14:56:36.223Z,20.15
2022-10-31T14:59:10.315Z,21.52
2022-10-31T15:01:38.428Z,19.40
2022-10-31T15:04:24.148Z,26.45
2022-10-31T15:07:06.767Z,35.80
2022-10-31T15:09:35.647Z,22.10
2022-10-31T15:12:21.994Z,26.40
2022-10-31T15:14:48.630Z,23.88
2022-10-31T15:17:15.323Z,35.42
2022-10-31T15:19:43.393Z,21.13
2022-10-31T15:22:16.678Z,35.22
2022-10-31T15:24:44.005Z,22.52
2022-10-31T15:27:16.308Z,23.08
2022-10-31T15:29:54.584Z,24.42
2022-10-31T15:32:25.372Z,19.90
2022-10-31T15:34:52.943Z,31.20
2022-10-31T15:37:22.090Z,30.25
2022-10-31T15:39:49.988Z,37.33
2022-10-31T15:42:26.299Z,31.00
2022-10-31T15:45:26.342Z,26.38
2022-10-31T15:48:04.630Z,38.10
2022-10-31T15:50:41.566Z,33.47
2022-10-31T15:53:18.935Z,37.05
2022-10-31T15:55:57.607Z,27.10
2022-10-31T15:58:25.259Z,30.92
2022-10-31T16:01:28.655Z,36.95
2022-10-31T16:04:05.855Z,28.13
2022-10-31T16:06:34.504Z,33.08
2022-10-31T16:09:03.105Z,35.38
2022-10-31T16:11:36.169Z,31.85
2022-10-31T16:14:25.243Z,28.80
2022-10-31T16:16:54.929Z,31.95
2022-10-31T16:19:24.720Z,30.70
2022-10-31T16:21:55.612Z,25.58
2022-10-31T16:24:27.803Z,31.38
2022-10-31T16:26:56.408Z,27.92
2022-10-31T16:29:27.883Z,26.83
2022-10-31T16:31:54.564Z,30.60
2022-10-31T16:34:26.525Z,28.77
2022-10-31T16:36:53.837Z,25.05
2022-10-31T16:39:20.477Z,28.58
2022-10-31T16:41:52.705Z,35.33
2022-10-31T16:44:23.433Z,30.77
2022-10-31T16:47:13.297Z,30.40
2022-10-31T16:49:40.001Z,31.08
2022-10-31T16:52:06.659Z,28.98
2022-10-31T16:54:33.618Z,27.85
2022-10-31T16:57:01.025Z,24.05
2022-10-31T16:59:28.218Z,25.08
2022-10-31T17:01:55.436Z,31.15
2022-10-31T17:04:22.446Z,30.38
2022-10-31T17:06:49.106Z,26.63
2022-10-31T17:09:15.740Z,28.40
2022-10-31T17:11:49.515Z,30.17
2022-10-31T17:14:17.459Z,29.60
2022-10-31T17:16:44.235Z,29.05
2022-10-31T17:19:11.947Z,23.67
2022-10-31T17:21:38.959Z,37.35
2022-10-31T17:24:06.136Z,33.60
2022-10-31T17:26:32.900Z,29.20
2022-10-31T17:29:01.984Z,24.83
2022-10-31T17:31:31.066Z,25.42
2022-10-31T17:36:29.144Z,37.47
2022-10-31T17:38:55.883Z,38.88
2022-10-31T17:41:22.506Z,30.23
2022-10-31T17:43:49.229Z,36.55
2022-10-31T17:46:15.930Z,43.55
2022-10-31T17:48:42.605Z,41.45
2022-10-31T17:51:09.345Z,33.78
2022-10-31T17:53:36.083Z,34.83
2022-10-31T17:56:08.025Z,35.10
2022-10-31T17:58:35.982Z,35.40
2022-10-31T18:01:11.975Z,32.17
2022-10-31T18:03:39.040Z,31.33
2022-10-31T18:06:06.320Z,31.02
2022-10-31T18:08:35.503Z,34.55
2022-10-31T18:11:14.861Z,37.63
2022-10-31T18:13:41.933Z,35.72
2022-10-31T18:16:17.455Z,45.60
2022-10-31T18:18:44.106Z,43.17
2022-10-31T18:21:10.947Z,53.75
2022-10-31T18:23:37.758Z,48.70
2022-10-31T18:26:04.631Z,53.28
2022-10-31T18:28:31.280Z,61.30
2022-10-31T18:31:00.977Z,48.58
2022-10-31T18:33:28.063Z,52.75
2022-10-31T18:35:54.917Z,42.75
2022-10-31T18:38:21.564Z,48.35
2022-10-31T18:40:48.351Z,41.17
2022-10-31T18:43:15.000Z,46.38
2022-10-31T18:45:46.827Z,61.97
2022-10-31T18:48:14.661Z,51.10
2022-10-31T18:50:41.930Z,61.83
2022-10-31T18:53:08.622Z,52.13
2022-10-31T18:55:45.376Z,48.60
2022-10-31T18:58:16.173Z,71.28
2022-10-31T19:00:42.938Z,76.32
2022-10-31T19:03:09.619Z,79.80
2022-10-31T19:05:36.293Z,99.78
2022-10-31T19:08:03.069Z,125.93
2022-10-31T19:10:29.781Z,146.95
2022-10-31T19:12:56.430Z,153.55
2022-10-31T19:15:23.130Z,133.55
2022-10-31T19:17:50.015Z,138.43
2022-10-31T19:20:16.860Z,144.20
2022-10-31T19:22:43.702Z,147.73
2022-10-31T19:25:11.147Z,144.07
2022-10-31T19:27:38.676Z,148.90
2022-10-31T19:30:06.423Z,152.35
2022-10-31T19:32:33.227Z,159.52
2022-10-31T19:34:59.897Z,165.52
2022-10-31T19:37:26.570Z,166.73
2022-10-31T19:39:53.223Z,166.23
2022-10-31T19:42:20.272Z,184.70
2022-10-31T19:44:47.013Z,202.48
2022-10-31T19:47:13.670Z,187.23
2022-10-31T19:49:40.350Z,191.55
2022-10-31T19:52:07.046Z,177.32
2022-10-31T19:54:33.790Z,174.50
2022-10-31T19:57:00.410Z,161.02
2022-10-31T19:59:27.206Z,151.68
2022-10-31T20:01:53.858Z,139.85
2022-10-31T20:04:20.595Z,134.70
2022-10-31T20:06:47.214Z,126.05
2022-10-31T20:09:14.680Z,125.93
2022-10-31T20:11:42.938Z,142.68
2022-10-31T20:14:12.768Z,109.82
2022-10-31T20:16:39.874Z,96.57
2022-10-31T20:19:06.509Z,116.80
2022-10-31T20:21:37.198Z,90.13
2022-10-31T20:24:05.553Z,76.80
2022-10-31T20:26:33.067Z,76.15
2022-10-31T20:29:00.599Z,83.32
2022-10-31T20:31:31.031Z,95.00
2022-10-31T20:33:57.943Z,84.10
2022-10-31T20:36:25.377Z,89.85
2022-10-31T20:38:52.638Z,85.70
2022-10-31T20:41:19.762Z,78.90
2022-10-31T20:43:46.944Z,76.07
2022-10-31T20:46:16.135Z,71.28
2022-10-31T20:51:28.661Z,69.90
2022-10-31T20:53:57.034Z,65.68
2022-10-31T20:56:25.193Z,78.50
2022-10-31T20:58:52.247Z,62.05
2022-10-31T21:01:24.677Z,54.50
2022-10-31T21:03:51.851Z,50.42
2022-10-31T21:06:19.659Z,49.28
2022-10-31T21:08:46.581Z,62.85
2022-10-31T21:11:16.439Z,52.28
2022-10-31T21:13:45.227Z,49.75
2022-10-31T21:16:17.346Z,60.83
2022-10-31T21:18:45.078Z,51.83
2022-10-31T21:21:12.978Z,52.92
2022-10-31T21:23:39.997Z,52.65
2022-10-31T21:26:09.472Z,51.95
2022-10-31T21:28:36.158Z,43.95
2022-10-31T21:31:07.694Z,47.83
2022-10-31T21:33:34.603Z,47.25
2022-10-31T21:36:01.253Z,48.03
2022-10-31T21:38:27.944Z,43.85
2022-10-31T21:41:05.734Z,52.47
2022-10-31T21:43:35.410Z,41.53
2022-10-31T21:46:06.179Z,51.45
2022-10-31T21:48:33.325Z,44.13
2022-10-31T21:51:04.344Z,46.55
2022-10-31T21:53:49.862Z,44.33
2022-10-31T21:56:16.594Z,42.92
2022-10-31T21:58:43.252Z,46.05
2022-10-31T22:01:10.003Z,42.67
2022-10-31T22:03:40.130Z,45.05
2022-10-31T22:06:08.283Z,42.20
2022-10-31T22:08:34.951Z,51.45
2022-10-31T22:11:06.502Z,42.78
2022-10-31T22:13:34.073Z,36.85
2022-10-31T22:16:06.536Z,42.92
2022-10-31T22:18:33.243Z,39.38
2022-10-31T22:21:04.663Z,39.03
2022-10-31T22:23:31.512Z,46.40
2022-10-31T22:26:16.164Z,39.28
2022-10-31T22:28:44.740Z,31.15
2022-10-31T22:31:13.915Z,30.65
2022-10-31T22:36:12.617Z,35.55
2022-10-31T22:38:40.449Z,32.05
2022-10-31T22:41:09.113Z,40.22
2022-10-31T22:43:36.038Z,27.83
2022-10-31T22:46:05.370Z,29.02
2022-10-31T22:48:40.594Z,25.48
2022-10-31T22:51:09.404Z,27.60
2022-10-31T22:53:37.314Z,31.13
2022-10-31T22:56:04.976Z,33.67
2022-10-31T22:58:32.624Z,26.30
2022-10-31T23:00:59.848Z,35.63
2022-10-31T23:03:27.047Z,26.95
2022-10-31T23:06:00.413Z,28.90
2022-10-31T23:08:28.515Z,25.90
2022-10-31T23:10:55.315Z,24.88
2022-10-31T23:13:40.852Z,29.40
2022-10-31T23:16:08.842Z,24.58
2022-10-31T23:18:50.851Z,25.73
2022-10-31T23:21:44.124Z,24.67
2022-10-31T23:24:11.902Z,28.35
2022-10-31T23:26:59.898Z,33.53
2022-10-31T23:29:26.565Z,28.15
2022-10-31T23:31:56.179Z,34.60
2022-10-31T23:34:22.923Z,27.55
2022-10-31T23:36:49.923Z,24.55
2022-10-31T23:39:19.954Z,25.23
2022-10-31T23:41:49.491Z,25.90
2022-10-31T23:44:16.111Z,27.52
2022-10-31T23:46:42.846Z,31.45
2022-10-31T23:49:09.654Z,32.78
2022-10-31T23:51:36.300Z,32.95
2022-10-31T23:54:04.278Z,26.92
2022-10-31T23:56:30.898Z,25.35
2022-10-31T23:58:57.592Z,28.50
